Time;durP1;ratioP1;P1;durP2;ratioP2;P2;SDS_P1;SDS_P2;PMS_P1;PMS_P2;Temp;Humidity;BMP_temperature;BMP_pressure;BME280_temperature;BME280_humidity;BME280_pressure;Samples;Min_cycle;Max_cycle;Signal;HPM_P1;HPM_P2
2024/02/29 00:02:01;;;;;;;32.27;13.83;;;-2.20;99.90;-2.80;101075.00;;;;4927384;28;93617;-64
2024/02/29 00:04:28;;;;;;;26.23;13.87;;;-2.30;99.90;-2.80;101061.00;;;;4924283;28;93856;-63
2024/02/29 00:06:57;;;;;;;28.60;13.77;;;-2.30;99.90;-2.80;101072.00;;;;4930172;28;93053;-63
2024/02/29 00:09:23;;;;;;;22.53;13.30;;;-2.30;99.90;-2.80;101066.00;;;;4924253;28;101246;-63
2024/02/29 00:11:51;;;;;;;27.30;14.40;;;-2.30;99.90;-2.80;101069.00;;;;4928875;28;113876;-63
2024/02/29 00:14:18;;;;;;;25.60;13.70;;;-2.30;99.90;-2.80;101071.00;;;;4930376;28;94102;-63
2024/02/29 00:16:44;;;;;;;31.67;14.93;;;-2.30;99.90;-2.80;101052.00;;;;4947999;28;94597;-63
2024/02/29 00:19:11;;;;;;;26.27;14.87;;;-2.30;99.90;-2.90;101055.00;;;;4924122;28;93116;-63
2024/02/29 00:21:37;;;;;;;28.70;14.93;;;-2.20;99.90;-2.90;101065.00;;;;4927767;28;93761;-63
2024/02/29 00:24:03;;;;;;;29.03;13.63;;;-1.50;99.90;-2.90;101064.00;;;;4927013;28;121212;-63
2024/02/29 00:26:28;;;;;;;28.50;13.17;;;-2.40;99.90;-3.00;101055.00;;;;4927370;28;113193;-63
2024/02/29 00:28:54;;;;;;;25.10;13.13;;;-2.40;99.90;-3.00;101050.00;;;;4924324;28;109223;-63
2024/02/29 00:31:21;;;;;;;23.50;11.70;;;-2.50;99.90;-3.00;101051.00;;;;4927180;28;113841;-63
2024/02/29 00:33:47;;;;;;;26.87;13.87;;;-2.40;99.90;-3.00;101049.00;;;;4926245;28;93822;-63
2024/02/29 00:36:13;;;;;;;27.43;14.50;;;-1.50;99.90;-3.00;101054.00;;;;4923492;28;113508;-63
2024/02/29 00:38:38;;;;;;;29.57;13.63;;;-2.40;99.90;-3.00;101048.00;;;;4928806;28;109290;-64
2024/02/29 00:41:04;;;;;;;23.70;12.83;;;-2.50;99.90;-3.00;101044.00;;;;4925882;28;94345;-63
2024/02/29 00:43:30;;;;;;;26.93;13.27;;;-2.50;99.90;-3.10;101042.00;;;;4927159;28;111037;-63
2024/02/29 00:45:56;;;;;;;20.37;12.13;;;-2.50;99.90;-3.10;101033.00;;;;4928072;28;113499;-64
2024/02/29 00:48:21;;;;;;;25.27;11.33;;;-2.50;99.90;-3.10;101045.00;;;;4928103;28;108372;-63
2024/02/29 00:50:47;;;;;;;29.80;13.53;;;-2.60;99.90;-3.10;101024.00;;;;4928969;28;121810;-64
2024/02/29 00:53:13;;;;;;;23.40;13.00;;;-2.60;99.90;-3.10;101033.00;;;;4922658;28;121658;-63
2024/02/29 00:55:38;;;;;;;27.50;13.63;;;-1.60;99.90;-3.10;101031.00;;;;4930983;28;111756;-64
2024/02/29 00:58:04;;;;;;;25.43;13.80;;;-2.60;99.90;-3.10;101030.00;;;;4929220;28;109547;-63
2024/02/29 01:00:30;;;;;;;27.63;14.17;;;-2.60;99.90;-3.10;101036.00;;;;4923498;28;93432;-63
2024/02/29 01:02:56;;;;;;;27.30;14.43;;;-2.60;99.90;-3.10;101032.00;;;;4920714;28;123289;-63
2024/02/29 01:05:21;;;;;;;26.20;12.93;;;-2.60;99.90;-3.00;101026.00;;;;4925710;28;112420;-62
2024/02/29 01:07:47;;;;;;;26.23;12.83;;;-2.60;99.90;-3.00;101022.00;;;;4925850;28;108998;-63
2024/02/29 01:10:13;;;;;;;20.93;10.20;;;-2.50;99.90;-3.00;101032.00;;;;4926935;28;122079;-63
2024/02/29 01:12:41;;;;;;;24.43;13.17;;;-2.50;99.90;-3.00;101029.00;;;;4930137;28;93112;-62
2024/02/29 01:15:08;;;;;;;18.37;9.73;;;-2.50;99.90;-3.00;101024.00;;;;4928616;28;92952;-62
2024/02/29 01:17:34;;;;;;;19.70;9.67;;;-2.50;99.90;-3.00;101022.00;;;;4931595;28;94038;-61
2024/02/29 01:20:00;;;;;;;22.70;10.87;;;-2.50;99.90;-3.00;101012.00;;;;4934470;28;117566;-63
2024/02/29 01:22:26;;;;;;;28.67;13.20;;;-2.60;99.90;-3.00;101007.00;;;;4926586;28;122272;-63
2024/02/29 01:24:51;;;;;;;28.60;12.83;;;-2.40;99.90;-3.00;101008.00;;;;4931282;28;93141;-63
2024/02/29 01:27:17;;;;;;;21.63;10.60;;;-2.40;99.90;-3.00;101016.00;;;;4928995;28;108933;-62
2024/02/29 01:29:43;;;;;;;20.90;10.87;;;-2.50;99.90;-2.90;101001.00;;;;4927180;28;124200;-62
2024/02/29 01:32:12;;;;;;;24.43;13.03;;;-2.40;99.90;-2.90;101004.00;;;;4924352;28;93769;-62
2024/02/29 01:34:37;;;;;;;23.30;12.37;;;-2.40;99.90;-2.90;100997.00;;;;4927492;28;93437;-63
2024/02/29 01:37:03;;;;;;;27.10;12.40;;;-2.50;99.90;-2.90;100999.00;;;;4928686;28;109067;-63
2024/02/29 01:39:29;;;;;;;21.87;12.13;;;-2.50;99.90;-2.90;100993.00;;;;4931962;28;109655;-62
2024/02/29 01:41:56;;;;;;;26.17;12.90;;;-2.40;99.90;-3.00;100989.00;;;;4929714;28;113870;-63
2024/02/29 01:44:22;;;;;;;22.67;13.50;;;-2.50;99.90;-3.00;100995.00;;;;4929421;28;92854;-62
2024/02/29 01:46:48;;;;;;;24.17;13.53;;;-2.50;99.90;-3.10;100982.00;;;;4932315;28;97557;-62
2024/02/29 01:49:15;;;;;;;27.63;13.20;;;-2.50;99.90;-3.10;100985.00;;;;4930030;28;122062;-62
2024/02/29 01:51:43;;;;;;;24.20;13.53;;;-2.50;99.90;-3.10;100981.00;;;;4931361;28;110486;-62
2024/02/29 01:54:10;;;;;;;25.13;13.77;;;-2.60;99.90;-3.20;100982.00;;;;4930463;28;92937;-62
2024/02/29 01:56:36;;;;;;;30.23;14.20;;;-2.70;99.90;-3.20;100979.00;;;;4931866;28;95073;-62
2024/02/29 01:59:04;;;;;;;27.83;13.67;;;-2.60;99.90;-3.20;100976.00;;;;4931735;28;113546;-63
2024/02/29 02:01:30;;;;;;;21.87;13.13;;;-2.70;99.90;-3.20;100984.00;;;;4927344;28;102254;-62
2024/02/29 02:03:56;;;;;;;26.07;12.77;;;-2.70;99.90;-3.10;100969.00;;;;4928134;28;114020;-62
2024/02/29 02:06:21;;;;;;;28.30;12.73;;;-2.70;99.90;-3.10;100961.00;;;;4928448;28;94027;-62
2024/02/29 02:08:47;;;;;;;15.90;10.23;;;-2.70;99.90;-3.10;100971.00;;;;4928836;28;95219;-63
2024/02/29 02:11:13;;;;;;;22.00;10.67;;;-2.60;99.90;-3.10;100966.00;;;;4927682;28;122414;-62
2024/02/29 02:13:39;;;;;;;31.00;14.10;;;-2.50;99.90;-3.00;100968.00;;;;4926235;28;93076;-63
2024/02/29 02:16:09;;;;;;;28.17;12.37;;;-2.50;99.90;-3.00;100949.00;;;;4924948;28;98911;-63
2024/02/29 02:18:35;;;;;;;30.93;14.90;;;-2.60;99.90;-3.00;100969.00;;;;4926618;28;107606;-63
2024/02/29 02:21:01;;;;;;;22.17;13.80;;;-2.40;99.90;-3.00;100972.00;;;;4925192;28;94308;-63
2024/02/29 02:23:27;;;;;;;25.70;12.23;;;-2.50;99.90;-3.00;100956.00;;;;4929284;28;92684;-63
2024/02/29 02:25:57;;;;;;;24.03;12.97;;;-2.50;99.90;-3.00;100954.00;;;;4926810;28;107874;-62
2024/02/29 02:28:24;;;;;;;27.40;14.70;;;-2.60;99.90;-3.00;100956.00;;;;4928461;28;93816;-63
2024/02/29 02:30:50;;;;;;;28.17;12.43;;;-2.60;99.90;-3.10;100955.00;;;;4929225;28;94029;-62
2024/02/29 02:33:15;;;;;;;25.60;14.17;;;-2.20;99.90;-3.00;100956.00;;;;4926498;28;112086;-60
2024/02/29 02:35:41;;;;;;;27.60;13.10;;;-2.60;99.90;-3.10;100941.00;;;;4931245;28;109228;-64
2024/02/29 02:38:07;;;;;;;26.20;13.73;;;-2.50;99.90;-3.10;100946.00;;;;4928469;28;123329;-63
2024/02/29 02:40:34;;;;;;;32.53;14.73;;;-2.60;99.90;-3.10;100935.00;;;;4926541;28;94211;-63
2024/02/29 02:43:01;;;;;;;26.40;14.30;;;-2.60;99.90;-3.10;100934.00;;;;4929154;28;92871;-61
2024/02/29 02:45:26;;;;;;;30.40;14.83;;;-2.60;99.90;-3.10;100936.00;;;;4930218;28;92707;-63
2024/02/29 02:47:52;;;;;;;29.80;13.47;;;-2.60;99.90;-3.00;100931.00;;;;4926410;28;119217;-64
2024/02/29 02:50:18;;;;;;;27.33;14.30;;;-2.50;99.90;-3.00;100933.00;;;;4928246;28;121166;-63
2024/02/29 02:52:43;;;;;;;30.63;15.87;;;-2.50;99.90;-3.00;100925.00;;;;4929831;28;112162;-63
2024/02/29 02:55:09;;;;;;;35.50;14.27;;;-2.50;99.90;-3.00;100926.00;;;;4927596;28;108398;-62
2024/02/29 02:57:34;;;;;;;26.00;12.90;;;-2.60;99.90;-3.00;100931.00;;;;4926289;28;93956;-63
2024/02/29 03:00:00;;;;;;;21.77;13.47;;;-2.60;99.90;-3.00;100903.00;;;;4928009;28;122393;-62
2024/02/29 03:02:26;;;;;;;27.80;14.17;;;-2.60;99.90;-3.00;100918.00;;;;4923970;28;114250;-63
2024/02/29 03:04:52;;;;;;;30.80;16.37;;;-2.50;99.90;-3.00;100913.00;;;;4927164;28;109581;-62
2024/02/29 03:07:19;;;;;;;28.40;13.67;;;-2.50;99.90;-3.00;100913.00;;;;4928441;28;93978;-63
2024/02/29 03:09:45;;;;;;;39.07;14.80;;;-2.50;99.90;-3.00;100924.00;;;;4925661;28;93795;-63
2024/02/29 03:12:11;;;;;;;31.07;16.90;;;-3.30;99.90;-3.00;100908.00;;;;4926161;28;92854;-63
2024/02/29 03:14:37;;;;;;;25.20;14.70;;;-2.50;99.90;-3.00;100911.00;;;;4927820;28;107767;-63
2024/02/29 03:17:03;;;;;;;28.33;15.80;;;-2.40;99.90;-3.00;100924.00;;;;4926535;28;93846;-63
2024/02/29 03:19:29;;;;;;;32.30;14.53;;;-2.70;99.90;-3.00;100907.00;;;;4928529;28;93871;-63
2024/02/29 03:21:55;;;;;;;30.53;13.20;;;-2.40;99.90;-3.00;100913.00;;;;4927031;28;100384;-62
2024/02/29 03:24:21;;;;;;;17.47;11.80;;;-1.60;99.90;-3.00;100924.00;;;;4929441;28;96939;-62
2024/02/29 03:26:47;;;;;;;27.40;13.43;;;-2.50;99.90;-2.90;100923.00;;;;4926801;28;94090;-62
2024/02/29 03:29:13;;;;;;;24.43;13.83;;;-2.50;99.90;-2.90;100910.00;;;;4929036;28;94016;-62
2024/02/29 03:31:43;;;;;;;31.03;14.90;;;-2.40;99.90;-2.90;100918.00;;;;4929883;28;93026;-62
2024/02/29 03:34:08;;;;;;;28.03;15.17;;;-2.30;99.90;-2.90;100910.00;;;;4929433;28;93034;-65
2024/02/29 03:36:34;;;;;;;27.90;13.53;;;-2.50;99.90;-2.90;100915.00;;;;4925062;28;92672;-63
2024/02/29 03:39:00;;;;;;;33.13;15.70;;;-2.30;99.90;-2.90;100911.00;;;;4931456;28;120970;-62
2024/02/29 03:41:26;;;;;;;33.70;17.20;;;-2.40;99.90;-2.80;100912.00;;;;4927196;28;102713;-65
2024/02/29 03:43:52;;;;;;;33.23;17.13;;;-2.40;99.90;-2.80;100908.00;;;;4928377;28;94124;-64
2024/02/29 03:46:18;;;;;;;36.93;17.60;;;-2.30;99.90;-2.80;100904.00;;;;4929436;28;122331;-63
2024/02/29 03:48:43;;;;;;;36.03;17.57;;;-2.30;99.90;-2.80;100903.00;;;;4928013;28;107048;-61
2024/02/29 03:51:09;;;;;;;33.03;16.70;;;-2.30;99.90;-2.80;100895.00;;;;4929506;28;101567;-62
2024/02/29 03:53:34;;;;;;;28.00;15.83;;;-2.20;99.90;-2.80;100894.00;;;;4928741;28;108859;-62
2024/02/29 03:56:00;;;;;;;35.70;18.33;;;-2.30;99.90;-2.70;100891.00;;;;4929138;28;122072;-62
2024/02/29 03:58:26;;;;;;;41.43;17.67;;;-2.20;99.90;-2.70;100890.00;;;;4927215;28;121399;-62
2024/02/29 04:00:52;;;;;;;35.37;17.47;;;-2.20;99.90;-2.80;100894.00;;;;4924441;28;106604;-64
2024/02/29 04:03:18;;;;;;;33.97;15.63;;;-2.30;99.90;-2.80;100888.00;;;;4928387;28;108169;-63
2024/02/29 04:05:43;;;;;;;37.00;17.03;;;-2.40;99.90;-2.80;100872.00;;;;4925955;28;93656;-63
2024/02/29 04:08:12;;;;;;;26.83;14.50;;;-2.30;99.90;-2.90;100885.00;;;;4923531;28;122936;-63
2024/02/29 04:10:44;;;;;;;37.33;15.67;;;-2.40;99.90;-2.90;100873.00;;;;4927843;28;93834;-61
2024/02/29 04:13:10;;;;;;;38.67;18.43;;;-2.40;99.90;-2.90;100882.00;;;;4940151;28;93060;-62
2024/02/29 04:15:35;;;;;;;36.43;17.40;;;-2.40;99.90;-3.00;100875.00;;;;4922889;28;123104;-62
2024/02/29 04:18:03;;;;;;;28.20;15.00;;;-2.50;99.90;-3.10;100881.00;;;;4926720;28;123643;-64
2024/02/29 04:20:29;;;;;;;31.83;16.53;;;-2.50;99.90;-3.20;100883.00;;;;4923250;28;92639;-62
2024/02/29 04:22:55;;;;;;;32.17;16.83;;;-2.60;99.90;-3.20;100882.00;;;;4928471;28;107351;-62
2024/02/29 04:25:22;;;;;;;34.30;16.00;;;-2.70;99.90;-3.30;100882.00;;;;4928553;28;95609;-62
2024/02/29 04:27:50;;;;;;;33.57;15.07;;;-2.70;99.90;-3.30;100880.00;;;;4925053;28;93154;-62
2024/02/29 04:30:16;;;;;;;24.33;14.27;;;-2.80;99.90;-3.30;100877.00;;;;4923922;28;93604;-63
2024/02/29 04:32:42;;;;;;;27.43;15.00;;;-2.90;99.90;-3.30;100869.00;;;;4926340;28;97526;-62
2024/02/29 04:35:09;;;;;;;29.20;13.70;;;-2.80;99.90;-3.40;100869.00;;;;4924915;28;118959;-62
2024/02/29 04:37:35;;;;;;;25.70;14.07;;;-2.80;99.90;-3.40;100868.00;;;;4928101;28;92856;-61
2024/02/29 04:40:03;;;;;;;25.57;13.93;;;-2.80;99.90;-3.30;100857.00;;;;4925423;28;105291;-61
2024/02/29 04:42:33;;;;;;;27.00;14.37;;;-2.80;99.90;-3.30;100862.00;;;;4926761;28;92891;-62
2024/02/29 04:44:59;;;;;;;28.47;14.10;;;-2.80;99.90;-3.30;100860.00;;;;4929431;28;93634;-62
2024/02/29 04:47:25;;;;;;;22.30;13.03;;;-2.80;99.90;-3.40;100861.00;;;;4925113;28;115018;-61
2024/02/29 04:49:51;;;;;;;26.53;13.73;;;-2.80;99.90;-3.40;100864.00;;;;4925096;28;92159;-65
2024/02/29 04:52:17;;;;;;;28.63;14.40;;;-2.80;99.90;-3.50;100864.00;;;;4925366;28;93011;-62
2024/02/29 04:54:43;;;;;;;30.37;15.10;;;-2.90;99.90;-3.50;100854.00;;;;4925569;28;111576;-61
2024/02/29 04:57:09;;;;;;;26.73;14.43;;;-2.90;99.90;-3.60;100856.00;;;;4925609;28;122479;-62
2024/02/29 04:59:35;;;;;;;21.73;12.97;;;-3.00;99.90;-3.70;100863.00;;;;4926489;28;112891;-64
2024/02/29 05:02:01;;;;;;;32.07;14.23;;;-3.20;99.90;-3.70;100856.00;;;;4928367;28;108914;-60
2024/02/29 05:04:27;;;;;;;22.17;12.23;;;-3.20;99.90;-3.80;100848.00;;;;4927411;28;122976;-62
2024/02/29 05:06:53;;;;;;;33.13;14.47;;;-3.20;99.90;-3.80;100849.00;;;;4923961;28;122994;-62
2024/02/29 05:09:19;;;;;;;27.50;13.03;;;-3.20;99.90;-3.90;100848.00;;;;4923332;28;93167;-61
2024/02/29 05:11:45;;;;;;;31.93;14.77;;;-3.30;99.90;-3.90;100850.00;;;;4921325;28;93421;-62
2024/02/29 05:14:11;;;;;;;30.93;14.37;;;-3.40;99.90;-4.00;100845.00;;;;4927950;28;93146;-62
2024/02/29 05:16:37;;;;;;;28.70;14.43;;;-3.50;99.90;-4.00;100859.00;;;;4920862;28;121102;-62
2024/02/29 05:19:02;;;;;;;31.30;15.17;;;-3.40;99.90;-4.00;100856.00;;;;4926316;28;112676;-63
2024/02/29 05:21:28;;;;;;;27.47;13.57;;;-3.50;99.90;-4.00;100858.00;;;;4923991;28;96310;-61
2024/02/29 05:23:54;;;;;;;27.17;14.10;;;-3.50;99.90;-4.00;100862.00;;;;4926963;28;123084;-63
2024/02/29 05:26:20;;;;;;;28.17;14.13;;;-3.10;99.90;-4.00;100857.00;;;;4924956;28;93708;-64
2024/02/29 05:28:45;;;;;;;31.23;14.43;;;-3.60;99.90;-4.10;100844.00;;;;4928069;28;110162;-61
2024/02/29 05:31:11;;;;;;;25.27;13.90;;;-3.50;99.90;-4.20;100849.00;;;;4923690;28;109647;-60
2024/02/29 05:33:39;;;;;;;31.33;15.13;;;-3.60;99.90;-4.20;100847.00;;;;4924229;28;111968;-62
2024/02/29 05:36:06;;;;;;;26.23;13.17;;;-3.60;99.90;-4.20;100846.00;;;;4927704;28;114244;-62
2024/02/29 05:38:32;;;;;;;28.23;14.77;;;-3.60;99.90;-4.20;100844.00;;;;4920327;28;92249;-61
2024/02/29 05:40:57;;;;;;;26.10;13.37;;;-3.60;99.90;-4.20;100847.00;;;;4921988;28;98091;-62
2024/02/29 05:43:25;;;;;;;33.07;15.40;;;-3.70;99.90;-4.20;100827.00;;;;4921280;28;93946;-61
2024/02/29 05:45:51;;;;;;;30.57;16.00;;;-3.60;99.90;-4.30;100838.00;;;;4921572;28;94583;-61
2024/02/29 05:48:17;;;;;;;30.60;14.53;;;-3.80;99.90;-4.30;100844.00;;;;4921745;28;93116;-62
2024/02/29 05:50:43;;;;;;;28.90;15.07;;;-3.60;99.90;-4.30;100838.00;;;;4924641;28;109011;-61
2024/02/29 05:53:10;;;;;;;30.33;14.73;;;-3.70;99.90;-4.30;100846.00;;;;4920808;28;122546;-62
2024/02/29 05:55:36;;;;;;;27.80;14.77;;;-3.60;99.90;-4.30;100844.00;;;;4922240;28;93488;-63
2024/02/29 05:58:02;;;;;;;33.27;15.37;;;-3.60;99.90;-4.30;100843.00;;;;4922399;28;100091;-62
2024/02/29 06:00:28;;;;;;;31.20;15.37;;;-3.70;99.90;-4.20;100838.00;;;;4927100;28;92991;-61
2024/02/29 06:02:53;;;;;;;33.63;16.20;;;-3.60;99.90;-4.20;100848.00;;;;4926677;28;93251;-62
2024/02/29 06:05:19;;;;;;;29.83;16.70;;;-3.60;99.90;-4.20;100830.00;;;;4922981;28;122575;-62
2024/02/29 06:07:45;;;;;;;28.23;17.10;;;-3.70;99.90;-4.20;100820.00;;;;4927213;28;92826;-62
2024/02/29 06:10:11;;;;;;;27.53;15.57;;;-3.70;99.90;-4.30;100832.00;;;;4927998;28;94063;-61
2024/02/29 06:12:37;;;;;;;31.60;15.70;;;-3.70;99.90;-4.30;100835.00;;;;4928629;28;93366;-62
2024/02/29 06:15:03;;;;;;;32.40;15.50;;;-3.70;99.90;-4.20;100838.00;;;;4933320;28;112962;-60
2024/02/29 06:17:29;;;;;;;37.60;18.97;;;-3.60;99.90;-4.20;100835.00;;;;4931906;28;92770;-65
2024/02/29 06:19:55;;;;;;;33.03;15.93;;;-3.60;99.90;-4.10;100837.00;;;;4932433;28;92814;-63
2024/02/29 06:22:22;;;;;;;35.53;17.17;;;-3.60;99.90;-4.00;100844.00;;;;4927763;28;117105;-62
2024/02/29 06:24:49;;;;;;;26.47;16.57;;;-3.50;99.90;-3.90;100846.00;;;;4924541;28;93584;-62
2024/02/29 06:27:17;;;;;;;32.67;17.97;;;-3.40;99.90;-3.80;100852.00;;;;4930620;28;92342;-62
2024/02/29 06:29:43;;;;;;;29.90;15.73;;;-3.30;99.90;-3.70;100843.00;;;;4928530;28;92946;-63
2024/02/29 06:32:09;;;;;;;36.67;17.03;;;-3.30;99.90;-3.60;100829.00;;;;4926225;28;120496;-63
2024/02/29 06:34:34;;;;;;;32.70;18.17;;;-3.30;99.90;-3.40;100843.00;;;;4928154;28;123193;-62
2024/02/29 06:37:00;;;;;;;42.33;19.07;;;-2.90;99.90;-3.30;100829.00;;;;4928842;28;92977;-62
2024/02/29 06:39:26;;;;;;;38.43;19.17;;;-2.80;99.90;-3.10;100834.00;;;;4928239;28;92991;-62
2024/02/29 06:41:52;;;;;;;36.23;19.17;;;-2.70;99.90;-2.90;100837.00;;;;4929696;28;93655;-62
2024/02/29 06:44:18;;;;;;;32.00;18.13;;;-2.40;99.90;-2.80;100845.00;;;;4923454;28;93687;-63
2024/02/29 06:46:43;;;;;;;37.27;17.17;;;-2.40;99.90;-2.60;100839.00;;;;4928992;28;114153;-62
2024/02/29 06:49:09;;;;;;;33.20;19.33;;;-2.20;99.90;-2.30;100831.00;;;;4928582;28;93064;-63
2024/02/29 06:51:35;;;;;;;31.17;17.87;;;-1.90;99.90;-2.20;100836.00;;;;4932159;28;92612;-64
2024/02/29 06:54:02;;;;;;;37.50;20.00;;;-1.80;99.90;-2.00;100825.00;;;;4930949;28;93088;-63
2024/02/29 06:56:28;;;;;;;31.10;18.70;;;-1.40;99.90;-1.70;100836.00;;;;4928861;28;93078;-64
2024/02/29 06:58:53;;;;;;;36.97;21.33;;;-1.30;99.90;-1.50;100822.00;;;;4925356;28;108829;-64
2024/02/29 07:01:22;;;;;;;40.40;18.97;;;-1.20;99.90;-1.30;100826.00;;;;4928341;28;121876;-62
2024/02/29 07:03:47;;;;;;;41.30;22.53;;;-0.90;99.90;-1.10;100833.00;;;;4935496;28;93435;-63
2024/02/29 07:06:14;;;;;;;47.57;25.10;;;-0.70;99.90;-0.90;100822.00;;;;4929308;28;100495;-63
2024/02/29 07:08:40;;;;;;;43.97;20.63;;;0.50;99.90;-0.80;100822.00;;;;4929115;28;92841;-63
2024/02/29 07:11:05;;;;;;;33.57;18.90;;;-0.40;99.90;-0.60;100820.00;;;;4928541;28;93371;-63
2024/02/29 07:13:31;;;;;;;33.03;19.53;;;-0.30;99.90;-0.40;100821.00;;;;4929532;28;93338;-64
2024/02/29 07:15:57;;;;;;;29.17;15.40;;;0.00;99.90;-0.20;100827.00;;;;4931662;28;114550;-64
2024/02/29 07:18:24;;;;;;;21.87;13.20;;;0.10;99.90;0.00;100815.00;;;;4930468;28;108869;-66
2024/02/29 07:20:50;;;;;;;26.67;14.60;;;0.40;99.90;0.20;100827.00;;;;4930242;28;92660;-68
2024/02/29 07:23:16;;;;;;;17.43;13.77;;;0.50;99.90;0.40;100825.00;;;;4929084;28;93940;-68
2024/02/29 07:25:42;;;;;;;27.07;15.80;;;0.80;99.90;0.60;100833.00;;;;4925705;28;92701;-67
2024/02/29 07:28:08;;;;;;;26.83;16.10;;;1.00;99.90;0.80;100829.00;;;;4929812;28;93115;-67
2024/02/29 07:30:34;;;;;;;22.20;14.73;;;1.80;99.90;1.00;100831.00;;;;4926438;28;115349;-66
2024/02/29 07:33:03;;;;;;;27.33;14.70;;;1.30;99.90;1.20;100838.00;;;;4926098;28;113494;-66
2024/02/29 07:35:31;;;;;;;18.37;13.43;;;1.50;99.90;1.30;100834.00;;;;4928296;28;92930;-64
2024/02/29 07:37:57;;;;;;;21.33;13.43;;;1.70;99.90;1.50;100832.00;;;;4928659;28;92812;-66
2024/02/29 07:40:23;;;;;;;22.27;12.47;;;2.80;99.90;1.70;100832.00;;;;4926793;28;113375;-66
2024/02/29 07:42:49;;;;;;;22.27;12.93;;;2.00;99.90;1.90;100843.00;;;;4932548;28;93103;-67
2024/02/29 07:45:15;;;;;;;22.23;12.50;;;2.20;99.90;2.10;100835.00;;;;4927479;28;103388;-68
2024/02/29 07:47:41;;;;;;;23.40;13.53;;;2.30;99.90;2.30;100830.00;;;;4926246;28;94172;-67
2024/02/29 07:50:09;;;;;;;25.13;12.93;;;2.50;99.90;2.50;100834.00;;;;4926203;28;94047;-67
2024/02/29 07:52:37;;;;;;;19.27;11.50;;;2.80;99.90;2.70;100837.00;;;;4927369;28;94092;-67
2024/02/29 07:55:10;;;;;;;19.53;11.97;;;3.10;99.90;2.80;100839.00;;;;4925456;28;93081;-67
2024/02/29 07:57:35;;;;;;;18.20;10.97;;;3.70;99.90;3.00;100849.00;;;;4928797;28;92680;-66
2024/02/29 08:00:02;;;;;;;20.83;11.53;;;4.30;99.90;3.20;100844.00;;;;4925204;28;113569;-66
2024/02/29 08:02:28;;;;;;;17.53;10.57;;;3.40;99.90;3.50;100822.00;;;;4930554;28;93762;-66
2024/02/29 08:04:53;;;;;;;20.97;12.43;;;3.60;99.90;3.70;100831.00;;;;4930275;28;100230;-65
2024/02/29 08:07:19;;;;;;;18.03;11.67;;;4.30;99.90;3.90;100834.00;;;;4930958;28;93479;-65
2024/02/29 08:09:45;;;;;;;22.73;12.80;;;4.00;99.90;4.10;100844.00;;;;4923384;28;117854;-65
2024/02/29 08:12:10;;;;;;;19.53;11.20;;;4.20;99.90;4.30;100830.00;;;;4926487;28;123345;-65
2024/02/29 08:14:36;;;;;;;16.47;11.27;;;4.40;99.90;4.50;100836.00;;;;4927750;28;113458;-65
2024/02/29 08:17:02;;;;;;;20.10;11.20;;;4.60;99.90;4.80;100838.00;;;;4927182;28;110232;-65
2024/02/29 08:19:27;;;;;;;22.00;11.10;;;4.90;99.90;5.10;100835.00;;;;4926036;28;93541;-65
2024/02/29 08:21:53;;;;;;;22.67;13.13;;;5.10;99.90;5.30;100816.00;;;;4926589;28;97642;-65
2024/02/29 08:24:19;;;;;;;19.10;12.17;;;5.40;99.90;5.60;100833.00;;;;4925733;28;112769;-64
2024/02/29 08:26:44;;;;;;;23.80;11.73;;;5.70;99.90;5.90;100830.00;;;;4926550;28;109030;-65
2024/02/29 08:29:16;;;;;;;23.17;13.60;;;6.20;99.90;6.10;100825.00;;;;4928912;28;121738;-62
2024/02/29 08:31:43;;;;;;;25.63;13.17;;;6.20;99.90;6.50;100825.00;;;;4926548;28;93009;-63
2024/02/29 08:34:09;;;;;;;22.87;11.93;;;6.60;99.90;6.80;100825.00;;;;4927464;28;92861;-63
2024/02/29 08:36:34;;;;;;;19.50;11.10;;;6.90;99.90;7.10;100830.00;;;;4927205;28;107404;-62
2024/02/29 08:39:00;;;;;;;17.23;11.17;;;7.30;99.90;7.30;100826.00;;;;4933134;28;122862;-64
2024/02/29 08:41:26;;;;;;;21.23;11.10;;;7.30;99.90;7.60;100826.00;;;;4926438;28;117439;-62
2024/02/29 08:43:52;;;;;;;18.10;9.87;;;7.60;99.90;7.80;100805.00;;;;4928743;28;92883;-64
2024/02/29 08:46:18;;;;;;;18.43;10.47;;;7.80;99.90;8.00;100809.00;;;;4931243;28;108509;-64
2024/02/29 08:48:43;;;;;;;16.47;9.23;;;8.20;99.90;8.20;100811.00;;;;4924938;28;123098;-64
2024/02/29 08:51:09;;;;;;;12.97;10.10;;;8.20;99.90;8.50;100813.00;;;;4929528;28;122035;-64
2024/02/29 08:53:35;;;;;;;16.30;9.57;;;8.50;99.90;8.70;100812.00;;;;4928473;28;109896;-64
2024/02/29 08:56:01;;;;;;;17.43;10.30;;;8.70;99.90;8.90;100810.00;;;;4928284;28;109235;-64
2024/02/29 08:58:27;;;;;;;14.50;9.87;;;9.00;99.90;9.20;100806.00;;;;4928039;28;93880;-63
2024/02/29 09:00:53;;;;;;;13.07;9.80;;;9.20;99.90;9.30;100804.00;;;;4924209;28;110245;-64
2024/02/29 09:03:19;;;;;;;15.77;8.90;;;9.30;99.90;9.50;100807.00;;;;4924747;28;109888;-64
2024/02/29 09:05:45;;;;;;;20.00;10.47;;;9.50;99.90;9.70;100794.00;;;;4929487;28;92754;-64
2024/02/29 09:08:11;;;;;;;16.20;9.70;;;10.00;99.90;9.90;100802.00;;;;4925673;28;120546;-64
2024/02/29 09:10:36;;;;;;;20.33;9.87;;;10.00;99.90;10.10;100795.00;;;;4929781;28;122374;-64
2024/02/29 09:13:06;;;;;;;11.63;8.40;;;10.10;99.90;10.40;100801.00;;;;4932004;28;109375;-64
2024/02/29 09:15:32;;;;;;;14.10;8.90;;;10.30;99.90;10.60;100800.00;;;;4927297;28;93038;-64
2024/02/29 09:17:58;;;;;;;14.00;8.67;;;10.60;99.90;10.80;100803.00;;;;4928296;28;92358;-64
2024/02/29 09:20:24;;;;;;;11.70;7.47;;;10.70;99.90;11.00;100794.00;;;;4923506;28;96560;-65
2024/02/29 09:22:50;;;;;;;11.67;7.73;;;10.90;99.90;11.10;100801.00;;;;4925058;28;92819;-64
2024/02/29 09:25:19;;;;;;;14.70;8.13;;;11.10;99.90;11.30;100794.00;;;;4928293;28;93696;-65
2024/02/29 09:27:45;;;;;;;15.57;9.67;;;11.30;99.90;11.50;100789.00;;;;4928111;28;93203;-66
2024/02/29 09:30:12;;;;;;;14.33;9.47;;;11.30;99.90;11.70;100783.00;;;;4926151;28;92886;-65
2024/02/29 09:32:38;;;;;;;13.00;9.60;;;11.60;99.90;11.90;100780.00;;;;4928113;28;93083;-65
2024/02/29 09:35:04;;;;;;;14.73;7.57;;;12.10;99.90;12.00;100774.00;;;;4927420;28;93037;-65
2024/02/29 09:37:30;;;;;;;14.27;8.93;;;11.90;99.90;12.10;100775.00;;;;4934234;28;93525;-66
2024/02/29 09:39:56;;;;;;;9.83;6.93;;;11.90;99.90;12.20;100778.00;;;;4933230;28;93081;-66
2024/02/29 09:42:26;;;;;;;16.83;8.80;;;12.10;99.90;12.40;100774.00;;;;4930922;28;109884;-66
2024/02/29 09:44:53;;;;;;;11.47;7.40;;;12.30;99.90;12.60;100765.00;;;;4931905;28;93499;-65
2024/02/29 09:47:20;;;;;;;13.47;7.73;;;12.40;99.90;12.90;100767.00;;;;4927551;28;121712;-68
2024/02/29 09:49:46;;;;;;;12.23;7.27;;;12.70;99.90;13.30;100762.00;;;;4930773;28;93928;-65
2024/02/29 09:52:12;;;;;;;13.90;7.63;;;13.00;99.90;13.70;100766.00;;;;4931343;28;93405;-66
2024/02/29 09:54:42;;;;;;;16.10;9.40;;;13.40;99.90;14.00;100758.00;;;;4932628;28;92968;-65
2024/02/29 09:57:10;;;;;;;11.80;8.07;;;13.70;99.90;14.40;100771.00;;;;4929809;28;94332;-66
2024/02/29 09:59:37;;;;;;;15.17;7.87;;;14.00;99.90;14.80;100760.00;;;;4931292;28;111394;-66
2024/02/29 10:02:05;;;;;;;14.90;8.10;;;14.50;99.90;15.10;100764.00;;;;4927968;28;110110;-66
2024/02/29 10:04:35;;;;;;;17.90;8.50;;;14.80;99.80;15.30;100749.00;;;;4931521;28;93157;-67
2024/02/29 10:07:00;;;;;;;13.43;7.65;;;15.00;99.70;15.60;100746.00;;;;4930313;28;92807;-67
2024/02/29 10:09:30;;;;;;;13.60;8.85;;;15.30;99.20;15.90;100749.00;;;;4931221;28;122330;-67
2024/02/29 10:11:56;;;;;;;12.13;6.97;;;15.60;98.90;16.20;100748.00;;;;4934197;28;92995;-66
2024/02/29 10:14:28;;;;;;;12.07;6.63;;;15.90;98.20;16.40;100741.00;;;;4930507;28;93799;-66
2024/02/29 10:16:56;;;;;;;8.50;5.30;;;16.10;95.70;16.50;100739.00;;;;4929978;28;93456;-66
2024/02/29 10:19:23;;;;;;;8.05;4.82;;;16.20;94.80;16.60;100739.00;;;;4930123;28;93915;-65
2024/02/29 10:21:49;;;;;;;10.60;5.38;;;16.30;93.90;16.70;100735.00;;;;4925341;28;94005;-65
2024/02/29 10:24:15;;;;;;;9.60;6.15;;;16.40;94.00;16.60;100742.00;;;;4931257;28;93056;-66
2024/02/29 10:26:41;;;;;;;6.80;4.85;;;16.50;91.20;16.60;100734.00;;;;4927549;28;115828;-66
2024/02/29 10:29:10;;;;;;;8.80;5.47;;;16.40;90.70;16.30;100737.00;;;;4930427;28;93254;-65